sensor_id;sensor_type;location;lat;lon;timestamp;P1;durP1;ratioP1;P2;durP2;ratioP2
4806;SDS011;2417;52.482;13.432;2023-07-20T00:01:33;49.77;;;17.90;;
4806;SDS011;2417;52.482;13.432;2023-07-20T00:04:02;51.00;;;17.30;;
4806;SDS011;2417;52.482;13.432;2023-07-20T00:06:30;54.97;;;19.10;;
4806;SDS011;2417;52.482;13.432;2023-07-20T00:08:58;42.17;;;16.40;;
4806;SDS011;2417;52.482;13.432;2023-07-20T00:11:27;31.03;;;10.40;;
4806;SDS011;2417;52.482;13.432;2023-07-20T00:13:55;35.73;;;12.50;;
4806;SDS011;2417;52.482;13.432;2023-07-20T00:16:23;37.03;;;12.70;;
4806;SDS011;2417;52.482;13.432;2023-07-20T00:18:52;32.40;;;8.13;;
4806;SDS011;2417;52.482;13.432;2023-07-20T00:21:21;30.37;;;8.73;;
4806;SDS011;2417;52.482;13.432;2023-07-20T00:23:49;27.67;;;8.77;;
4806;SDS011;2417;52.482;13.432;2023-07-20T00:26:17;28.20;;;8.37;;
4806;SDS011;2417;52.482;13.432;2023-07-20T00:28:45;27.87;;;7.53;;
4806;SDS011;2417;52.482;13.432;2023-07-20T00:31:13;26.70;;;7.93;;
4806;SDS011;2417;52.482;13.432;2023-07-20T00:33:42;34.33;;;6.93;;
4806;SDS011;2417;52.482;13.432;2023-07-20T00:36:11;25.73;;;6.97;;
4806;SDS011;2417;52.482;13.432;2023-07-20T00:38:42;27.50;;;6.80;;
4806;SDS011;2417;52.482;13.432;2023-07-20T00:41:10;25.33;;;7.00;;
4806;SDS011;2417;52.482;13.432;2023-07-20T00:43:38;26.00;;;7.03;;
4806;SDS011;2417;52.482;13.432;2023-07-20T00:46:05;25.90;;;6.73;;
4806;SDS011;2417;52.482;13.432;2023-07-20T00:48:34;25.00;;;6.50;;
4806;SDS011;2417;52.482;13.432;2023-07-20T00:51:03;24.27;;;7.20;;
4806;SDS011;2417;52.482;13.432;2023-07-20T00:53:32;23.00;;;6.87;;
4806;SDS011;2417;52.482;13.432;2023-07-20T00:56:00;23.63;;;6.67;;
4806;SDS011;2417;52.482;13.432;2023-07-20T00:58:28;27.03;;;7.07;;
4806;SDS011;2417;52.482;13.432;2023-07-20T01:00:56;24.20;;;6.40;;
4806;SDS011;2417;52.482;13.432;2023-07-20T01:03:24;26.80;;;7.30;;
4806;SDS011;2417;52.482;13.432;2023-07-20T01:05:54;25.93;;;7.33;;
4806;SDS011;2417;52.482;13.432;2023-07-20T01:08:24;29.30;;;8.23;;
4806;SDS011;2417;52.482;13.432;2023-07-20T01:10:57;25.53;;;7.60;;
4806;SDS011;2417;52.482;13.432;2023-07-20T01:13:26;24.37;;;6.60;;
4806;SDS011;2417;52.482;13.432;2023-07-20T01:15:56;25.27;;;6.73;;
4806;SDS011;2417;52.482;13.432;2023-07-20T01:18:26;30.53;;;7.20;;
4806;SDS011;2417;52.482;13.432;2023-07-20T01:20:54;23.80;;;7.10;;
4806;SDS011;2417;52.482;13.432;2023-07-20T01:26:26;24.27;;;7.10;;
4806;SDS011;2417;52.482;13.432;2023-07-20T01:29:06;24.57;;;6.90;;
4806;SDS011;2417;52.482;13.432;2023-07-20T01:31:40;28.03;;;8.00;;
4806;SDS011;2417;52.482;13.432;2023-07-20T01:34:10;27.77;;;7.83;;
4806;SDS011;2417;52.482;13.432;2023-07-20T01:36:40;28.30;;;8.83;;
4806;SDS011;2417;52.482;13.432;2023-07-20T01:39:09;25.33;;;8.37;;
4806;SDS011;2417;52.482;13.432;2023-07-20T01:41:38;25.20;;;7.50;;
4806;SDS011;2417;52.482;13.432;2023-07-20T01:44:06;25.63;;;8.30;;
4806;SDS011;2417;52.482;13.432;2023-07-20T01:46:34;24.73;;;8.17;;
4806;SDS011;2417;52.482;13.432;2023-07-20T01:49:03;26.47;;;8.57;;
4806;SDS011;2417;52.482;13.432;2023-07-20T01:51:31;27.47;;;8.43;;
4806;SDS011;2417;52.482;13.432;2023-07-20T01:53:59;27.80;;;8.70;;
4806;SDS011;2417;52.482;13.432;2023-07-20T01:56:28;27.27;;;8.20;;
4806;SDS011;2417;52.482;13.432;2023-07-20T01:58:56;26.77;;;8.73;;
4806;SDS011;2417;52.482;13.432;2023-07-20T02:01:24;24.80;;;8.50;;
4806;SDS011;2417;52.482;13.432;2023-07-20T02:03:52;25.87;;;8.77;;
4806;SDS011;2417;52.482;13.432;2023-07-20T02:06:21;26.23;;;9.30;;
4806;SDS011;2417;52.482;13.432;2023-07-20T02:08:49;33.33;;;8.70;;
4806;SDS011;2417;52.482;13.432;2023-07-20T02:11:17;27.30;;;9.47;;
4806;SDS011;2417;52.482;13.432;2023-07-20T02:13:46;25.70;;;8.70;;
4806;SDS011;2417;52.482;13.432;2023-07-20T02:16:14;25.13;;;8.97;;
4806;SDS011;2417;52.482;13.432;2023-07-20T02:18:43;24.90;;;8.50;;
4806;SDS011;2417;52.482;13.432;2023-07-20T02:21:12;27.53;;;9.20;;
4806;SDS011;2417;52.482;13.432;2023-07-20T02:23:42;27.73;;;10.00;;
4806;SDS011;2417;52.482;13.432;2023-07-20T02:26:10;27.67;;;8.50;;
4806;SDS011;2417;52.482;13.432;2023-07-20T02:28:38;27.40;;;9.23;;
4806;SDS011;2417;52.482;13.432;2023-07-20T02:31:06;26.40;;;9.50;;
4806;SDS011;2417;52.482;13.432;2023-07-20T02:33:34;30.40;;;9.97;;
4806;SDS011;2417;52.482;13.432;2023-07-20T02:36:02;27.70;;;10.20;;
4806;SDS011;2417;52.482;13.432;2023-07-20T02:38:30;29.57;;;11.33;;
4806;SDS011;2417;52.482;13.432;2023-07-20T02:40:59;29.53;;;11.20;;
4806;SDS011;2417;52.482;13.432;2023-07-20T02:43:28;30.90;;;12.27;;
4806;SDS011;2417;52.482;13.432;2023-07-20T02:45:56;33.50;;;12.27;;
4806;SDS011;2417;52.482;13.432;2023-07-20T02:48:24;29.80;;;11.97;;
4806;SDS011;2417;52.482;13.432;2023-07-20T02:50:51;31.47;;;12.20;;
4806;SDS011;2417;52.482;13.432;2023-07-20T02:53:20;28.80;;;10.97;;
4806;SDS011;2417;52.482;13.432;2023-07-20T02:55:47;30.20;;;11.63;;
4806;SDS011;2417;52.482;13.432;2023-07-20T02:58:17;34.27;;;13.37;;
4806;SDS011;2417;52.482;13.432;2023-07-20T03:00:45;33.00;;;13.03;;
4806;SDS011;2417;52.482;13.432;2023-07-20T03:03:13;33.83;;;14.00;;
4806;SDS011;2417;52.482;13.432;2023-07-20T03:05:41;38.13;;;15.90;;
4806;SDS011;2417;52.482;13.432;2023-07-20T03:08:09;35.63;;;16.23;;
4806;SDS011;2417;52.482;13.432;2023-07-20T03:10:40;34.30;;;14.83;;
4806;SDS011;2417;52.482;13.432;2023-07-20T03:13:09;36.77;;;14.80;;
4806;SDS011;2417;52.482;13.432;2023-07-20T03:15:39;40.80;;;15.07;;
4806;SDS011;2417;52.482;13.432;2023-07-20T03:18:07;34.67;;;15.90;;
4806;SDS011;2417;52.482;13.432;2023-07-20T03:20:35;40.37;;;17.37;;
4806;SDS011;2417;52.482;13.432;2023-07-20T03:23:04;40.70;;;18.53;;
4806;SDS011;2417;52.482;13.432;2023-07-20T03:25:32;38.60;;;17.10;;
4806;SDS011;2417;52.482;13.432;2023-07-20T03:28:00;35.50;;;16.10;;
4806;SDS011;2417;52.482;13.432;2023-07-20T03:30:28;36.90;;;15.70;;
4806;SDS011;2417;52.482;13.432;2023-07-20T03:32:58;35.70;;;16.40;;
4806;SDS011;2417;52.482;13.432;2023-07-20T03:35:25;38.40;;;16.17;;
4806;SDS011;2417;52.482;13.432;2023-07-20T03:37:53;37.27;;;17.80;;
4806;SDS011;2417;52.482;13.432;2023-07-20T03:40:21;39.53;;;17.03;;
4806;SDS011;2417;52.482;13.432;2023-07-20T03:42:51;37.53;;;16.40;;
4806;SDS011;2417;52.482;13.432;2023-07-20T03:45:19;37.70;;;16.40;;
4806;SDS011;2417;52.482;13.432;2023-07-20T03:47:47;38.00;;;16.00;;
4806;SDS011;2417;52.482;13.432;2023-07-20T03:50:16;36.50;;;15.73;;
4806;SDS011;2417;52.482;13.432;2023-07-20T03:52:44;32.97;;;14.03;;
4806;SDS011;2417;52.482;13.432;2023-07-20T03:55:12;38.00;;;13.93;;
4806;SDS011;2417;52.482;13.432;2023-07-20T03:57:41;36.93;;;14.07;;
4806;SDS011;2417;52.482;13.432;2023-07-20T04:00:09;35.10;;;15.53;;
4806;SDS011;2417;52.482;13.432;2023-07-20T04:02:38;41.13;;;18.97;;
4806;SDS011;2417;52.482;13.432;2023-07-20T04:05:06;41.10;;;18.20;;
4806;SDS011;2417;52.482;13.432;2023-07-20T04:07:36;39.30;;;19.10;;
4806;SDS011;2417;52.482;13.432;2023-07-20T04:10:04;35.43;;;16.63;;
4806;SDS011;2417;52.482;13.432;2023-07-20T04:12:34;36.07;;;16.37;;
4806;SDS011;2417;52.482;13.432;2023-07-20T04:15:02;33.50;;;15.00;;
4806;SDS011;2417;52.482;13.432;2023-07-20T04:17:30;33.30;;;14.67;;
4806;SDS011;2417;52.482;13.432;2023-07-20T04:19:59;30.80;;;12.30;;
4806;SDS011;2417;52.482;13.432;2023-07-20T04:22:28;32.27;;;12.50;;
4806;SDS011;2417;52.482;13.432;2023-07-20T04:24:57;33.03;;;12.43;;
4806;SDS011;2417;52.482;13.432;2023-07-20T04:27:25;29.90;;;11.47;;
4806;SDS011;2417;52.482;13.432;2023-07-20T04:29:54;29.00;;;11.40;;
4806;SDS011;2417;52.482;13.432;2023-07-20T04:32:22;30.57;;;11.47;;
4806;SDS011;2417;52.482;13.432;2023-07-20T04:34:51;28.50;;;10.50;;
4806;SDS011;2417;52.482;13.432;2023-07-20T04:37:19;31.20;;;11.37;;
4806;SDS011;2417;52.482;13.432;2023-07-20T04:39:48;31.13;;;11.07;;
4806;SDS011;2417;52.482;13.432;2023-07-20T04:42:17;30.87;;;10.90;;
4806;SDS011;2417;52.482;13.432;2023-07-20T04:44:45;31.60;;;12.60;;
4806;SDS011;2417;52.482;13.432;2023-07-20T04:47:13;32.80;;;12.40;;
4806;SDS011;2417;52.482;13.432;2023-07-20T04:49:41;42.30;;;13.07;;
4806;SDS011;2417;52.482;13.432;2023-07-20T04:52:09;33.00;;;13.10;;
4806;SDS011;2417;52.482;13.432;2023-07-20T04:54:37;29.97;;;12.00;;
4806;SDS011;2417;52.482;13.432;2023-07-20T04:57:11;33.23;;;12.57;;
4806;SDS011;2417;52.482;13.432;2023-07-20T04:59:46;34.80;;;12.27;;
4806;SDS011;2417;52.482;13.432;2023-07-20T05:02:14;35.90;;;12.17;;
4806;SDS011;2417;52.482;13.432;2023-07-20T05:04:42;30.40;;;11.50;;
4806;SDS011;2417;52.482;13.432;2023-07-20T05:07:10;31.30;;;11.00;;
4806;SDS011;2417;52.482;13.432;2023-07-20T05:09:38;27.13;;;10.07;;
4806;SDS011;2417;52.482;13.432;2023-07-20T05:12:08;29.40;;;10.80;;
4806;SDS011;2417;52.482;13.432;2023-07-20T05:14:36;29.60;;;10.83;;
4806;SDS011;2417;52.482;13.432;2023-07-20T05:17:06;26.87;;;9.70;;
4806;SDS011;2417;52.482;13.432;2023-07-20T05:19:34;28.77;;;8.80;;
4806;SDS011;2417;52.482;13.432;2023-07-20T05:22:03;34.03;;;8.83;;
4806;SDS011;2417;52.482;13.432;2023-07-20T05:24:32;25.57;;;8.53;;
4806;SDS011;2417;52.482;13.432;2023-07-20T05:27:01;24.83;;;8.43;;
4806;SDS011;2417;52.482;13.432;2023-07-20T05:29:30;25.60;;;8.10;;
4806;SDS011;2417;52.482;13.432;2023-07-20T05:31:58;23.40;;;7.27;;
4806;SDS011;2417;52.482;13.432;2023-07-20T05:34:28;22.60;;;6.60;;
4806;SDS011;2417;52.482;13.432;2023-07-20T05:36:56;21.90;;;6.40;;
4806;SDS011;2417;52.482;13.432;2023-07-20T05:39:24;23.07;;;6.50;;
4806;SDS011;2417;52.482;13.432;2023-07-20T05:41:51;22.37;;;6.10;;
4806;SDS011;2417;52.482;13.432;2023-07-20T05:44:19;24.60;;;5.70;;
4806;SDS011;2417;52.482;13.432;2023-07-20T05:46:47;25.23;;;6.03;;
4806;SDS011;2417;52.482;13.432;2023-07-20T05:49:23;29.23;;;6.97;;
4806;SDS011;2417;52.482;13.432;2023-07-20T05:51:53;23.80;;;6.70;;
4806;SDS011;2417;52.482;13.432;2023-07-20T05:54:21;29.03;;;7.73;;
4806;SDS011;2417;52.482;13.432;2023-07-20T05:56:48;24.10;;;6.70;;
4806;SDS011;2417;52.482;13.432;2023-07-20T05:59:16;27.97;;;6.47;;
4806;SDS011;2417;52.482;13.432;2023-07-20T06:01:46;23.10;;;5.97;;
4806;SDS011;2417;52.482;13.432;2023-07-20T06:04:15;25.63;;;6.70;;
4806;SDS011;2417;52.482;13.432;2023-07-20T06:06:43;34.37;;;7.17;;
4806;SDS011;2417;52.482;13.432;2023-07-20T06:09:12;27.87;;;6.73;;
4806;SDS011;2417;52.482;13.432;2023-07-20T06:11:40;26.90;;;7.00;;
4806;SDS011;2417;52.482;13.432;2023-07-20T06:14:08;25.97;;;7.83;;
4806;SDS011;2417;52.482;13.432;2023-07-20T06:16:36;30.00;;;8.80;;
4806;SDS011;2417;52.482;13.432;2023-07-20T06:19:04;26.00;;;7.90;;
4806;SDS011;2417;52.482;13.432;2023-07-20T06:21:32;27.47;;;7.73;;
4806;SDS011;2417;52.482;13.432;2023-07-20T06:24:00;31.40;;;8.40;;
4806;SDS011;2417;52.482;13.432;2023-07-20T06:26:29;31.57;;;9.07;;
4806;SDS011;2417;52.482;13.432;2023-07-20T06:28:57;28.13;;;8.63;;
4806;SDS011;2417;52.482;13.432;2023-07-20T06:31:25;31.70;;;9.50;;
4806;SDS011;2417;52.482;13.432;2023-07-20T06:33:53;27.93;;;9.27;;
4806;SDS011;2417;52.482;13.432;2023-07-20T06:36:21;27.00;;;8.37;;
4806;SDS011;2417;52.482;13.432;2023-07-20T06:38:49;28.70;;;8.07;;
4806;SDS011;2417;52.482;13.432;2023-07-20T06:41:20;40.80;;;10.13;;
4806;SDS011;2417;52.482;13.432;2023-07-20T06:43:53;25.00;;;7.33;;
4806;SDS011;2417;52.482;13.432;2023-07-20T06:46:25;25.67;;;7.40;;
4806;SDS011;2417;52.482;13.432;2023-07-20T06:48:53;24.10;;;6.00;;
4806;SDS011;2417;52.482;13.432;2023-07-20T06:51:24;22.10;;;5.53;;
4806;SDS011;2417;52.482;13.432;2023-07-20T06:53:52;21.30;;;5.17;;
4806;SDS011;2417;52.482;13.432;2023-07-20T06:56:20;19.87;;;4.53;;
4806;SDS011;2417;52.482;13.432;2023-07-20T06:58:52;20.13;;;4.37;;
4806;SDS011;2417;52.482;13.432;2023-07-20T07:01:21;19.60;;;3.70;;
4806;SDS011;2417;52.482;13.432;2023-07-20T07:03:50;20.93;;;3.70;;
4806;SDS011;2417;52.482;13.432;2023-07-20T07:06:21;22.03;;;3.90;;
4806;SDS011;2417;52.482;13.432;2023-07-20T07:08:51;18.17;;;3.03;;
4806;SDS011;2417;52.482;13.432;2023-07-20T07:11:20;20.60;;;3.20;;
4806;SDS011;2417;52.482;13.432;2023-07-20T07:13:48;18.30;;;2.80;;
4806;SDS011;2417;52.482;13.432;2023-07-20T07:16:18;17.90;;;2.77;;
4806;SDS011;2417;52.482;13.432;2023-07-20T07:18:49;17.30;;;2.33;;
4806;SDS011;2417;52.482;13.432;2023-07-20T07:21:18;18.47;;;2.60;;
4806;SDS011;2417;52.482;13.432;2023-07-20T07:23:48;17.30;;;2.33;;
4806;SDS011;2417;52.482;13.432;2023-07-20T07:26:16;21.30;;;2.07;;
4806;SDS011;2417;52.482;13.432;2023-07-20T07:28:44;20.33;;;2.43;;
4806;SDS011;2417;52.482;13.432;2023-07-20T07:31:12;41.70;;;18.93;;
4806;SDS011;2417;52.482;13.432;2023-07-20T07:33:40;41.93;;;17.00;;
4806;SDS011;2417;52.482;13.432;2023-07-20T07:36:09;25.77;;;7.87;;
4806;SDS011;2417;52.482;13.432;2023-07-20T07:38:37;24.00;;;5.67;;
4806;SDS011;2417;52.482;13.432;2023-07-20T07:41:25;19.33;;;3.30;;
4806;SDS011;2417;52.482;13.432;2023-07-20T07:43:53;21.17;;;4.07;;
4806;SDS011;2417;52.482;13.432;2023-07-20T07:46:22;18.60;;;2.87;;
4806;SDS011;2417;52.482;13.432;2023-07-20T07:48:50;19.40;;;2.53;;
4806;SDS011;2417;52.482;13.432;2023-07-20T07:51:19;20.67;;;2.00;;
4806;SDS011;2417;52.482;13.432;2023-07-20T07:53:47;17.33;;;2.00;;
4806;SDS011;2417;52.482;13.432;2023-07-20T07:56:15;16.80;;;2.20;;
4806;SDS011;2417;52.482;13.432;2023-07-20T07:58:44;16.53;;;1.70;;
4806;SDS011;2417;52.482;13.432;2023-07-20T08:01:12;19.77;;;2.00;;
4806;SDS011;2417;52.482;13.432;2023-07-20T08:03:40;16.50;;;1.40;;
4806;SDS011;2417;52.482;13.432;2023-07-20T08:06:08;16.67;;;1.60;;
4806;SDS011;2417;52.482;13.432;2023-07-20T08:08:37;15.50;;;1.10;;
4806;SDS011;2417;52.482;13.432;2023-07-20T08:11:06;16.50;;;1.40;;
4806;SDS011;2417;52.482;13.432;2023-07-20T08:13:33;16.00;;;1.40;;
4806;SDS011;2417;52.482;13.432;2023-07-20T08:16:02;17.00;;;1.60;;
4806;SDS011;2417;52.482;13.432;2023-07-20T08:18:30;15.33;;;1.50;;
4806;SDS011;2417;52.482;13.432;2023-07-20T08:20:59;16.10;;;1.40;;
4806;SDS011;2417;52.482;13.432;2023-07-20T08:23:27;16.47;;;1.37;;
4806;SDS011;2417;52.482;13.432;2023-07-20T08:25:56;16.27;;;1.43;;
4806;SDS011;2417;52.482;13.432;2023-07-20T08:28:25;17.10;;;1.57;;
4806;SDS011;2417;52.482;13.432;2023-07-20T08:30:53;16.07;;;1.33;;
4806;SDS011;2417;52.482;13.432;2023-07-20T08:33:21;17.97;;;1.53;;
4806;SDS011;2417;52.482;13.432;2023-07-20T08:35:50;16.67;;;1.80;;
4806;SDS011;2417;52.482;13.432;2023-07-20T08:38:18;16.67;;;1.60;;
4806;SDS011;2417;52.482;13.432;2023-07-20T08:40:46;16.27;;;1.63;;
4806;SDS011;2417;52.482;13.432;2023-07-20T08:43:16;16.37;;;1.10;;
4806;SDS011;2417;52.482;13.432;2023-07-20T08:45:45;17.13;;;1.30;;
4806;SDS011;2417;52.482;13.432;2023-07-20T08:48:14;14.87;;;1.00;;
4806;SDS011;2417;52.482;13.432;2023-07-20T08:50:43;15.40;;;1.10;;
4806;SDS011;2417;52.482;13.432;2023-07-20T08:53:11;16.00;;;1.20;;
4806;SDS011;2417;52.482;13.432;2023-07-20T08:55:40;16.30;;;1.33;;
4806;SDS011;2417;52.482;13.432;2023-07-20T08:58:12;16.47;;;1.53;;
4806;SDS011;2417;52.482;13.432;2023-07-20T09:00:43;17.70;;;1.73;;
4806;SDS011;2417;52.482;13.432;2023-07-20T09:03:13;18.70;;;1.73;;
4806;SDS011;2417;52.482;13.432;2023-07-20T09:05:42;21.40;;;1.60;;
4806;SDS011;2417;52.482;13.432;2023-07-20T09:08:10;16.50;;;1.50;;
4806;SDS011;2417;52.482;13.432;2023-07-20T09:10:38;17.37;;;2.30;;
4806;SDS011;2417;52.482;13.432;2023-07-20T09:13:06;16.77;;;1.63;;
4806;SDS011;2417;52.482;13.432;2023-07-20T09:15:36;17.73;;;3.20;;
4806;SDS011;2417;52.482;13.432;2023-07-20T09:18:05;16.17;;;1.30;;
4806;SDS011;2417;52.482;13.432;2023-07-20T09:20:33;16.30;;;1.40;;
4806;SDS011;2417;52.482;13.432;2023-07-20T09:23:04;15.00;;;1.10;;
4806;SDS011;2417;52.482;13.432;2023-07-20T09:25:32;18.93;;;1.27;;
4806;SDS011;2417;52.482;13.432;2023-07-20T09:28:02;17.97;;;2.57;;
4806;SDS011;2417;52.482;13.432;2023-07-20T09:30:32;15.97;;;1.77;;
4806;SDS011;2417;52.482;13.432;2023-07-20T09:32:59;16.03;;;1.50;;
4806;SDS011;2417;52.482;13.432;2023-07-20T09:35:29;14.73;;;1.00;;
4806;SDS011;2417;52.482;13.432;2023-07-20T09:38:09;15.40;;;1.23;;
4806;SDS011;2417;52.482;13.432;2023-07-20T09:40:40;14.47;;;1.13;;
4806;SDS011;2417;52.482;13.432;2023-07-20T09:43:11;30.23;;;1.13;;
4806;SDS011;2417;52.482;13.432;2023-07-20T09:45:43;14.83;;;1.10;;
4806;SDS011;2417;52.482;13.432;2023-07-20T09:48:13;14.47;;;0.90;;
4806;SDS011;2417;52.482;13.432;2023-07-20T09:50:49;16.20;;;1.40;;
4806;SDS011;2417;52.482;13.432;2023-07-20T09:53:18;15.50;;;1.17;;
4806;SDS011;2417;52.482;13.432;2023-07-20T09:55:46;15.73;;;1.57;;
4806;SDS011;2417;52.482;13.432;2023-07-20T09:58:15;17.17;;;1.30;;
4806;SDS011;2417;52.482;13.432;2023-07-20T10:00:44;16.77;;;1.43;;
4806;SDS011;2417;52.482;13.432;2023-07-20T10:03:18;16.47;;;1.40;;
4806;SDS011;2417;52.482;13.432;2023-07-20T10:05:47;15.60;;;1.20;;
4806;SDS011;2417;52.482;13.432;2023-07-20T10:08:17;16.30;;;1.50;;
4806;SDS011;2417;52.482;13.432;2023-07-20T10:10:49;17.73;;;1.23;;
4806;SDS011;2417;52.482;13.432;2023-07-20T10:13:17;17.50;;;1.60;;
4806;SDS011;2417;52.482;13.432;2023-07-20T10:15:46;18.27;;;1.57;;
4806;SDS011;2417;52.482;13.432;2023-07-20T10:18:17;16.80;;;1.67;;
4806;SDS011;2417;52.482;13.432;2023-07-20T10:20:45;26.20;;;6.73;;
4806;SDS011;2417;52.482;13.432;2023-07-20T10:23:18;19.73;;;2.57;;
4806;SDS011;2417;52.482;13.432;2023-07-20T10:25:46;16.97;;;1.90;;
4806;SDS011;2417;52.482;13.432;2023-07-20T10:28:14;16.00;;;1.77;;
4806;SDS011;2417;52.482;13.432;2023-07-20T10:30:42;17.90;;;1.50;;
4806;SDS011;2417;52.482;13.432;2023-07-20T10:33:10;15.03;;;1.03;;
4806;SDS011;2417;52.482;13.432;2023-07-20T10:35:51;17.57;;;1.60;;
4806;SDS011;2417;52.482;13.432;2023-07-20T10:38:20;19.07;;;1.50;;
4806;SDS011;2417;52.482;13.432;2023-07-20T10:41:15;17.73;;;1.90;;
4806;SDS011;2417;52.482;13.432;2023-07-20T10:43:43;17.27;;;2.40;;
4806;SDS011;2417;52.482;13.432;2023-07-20T10:46:11;17.43;;;1.83;;
4806;SDS011;2417;52.482;13.432;2023-07-20T10:49:00;17.70;;;1.50;;
4806;SDS011;2417;52.482;13.432;2023-07-20T10:51:29;22.83;;;2.07;;
4806;SDS011;2417;52.482;13.432;2023-07-20T10:54:01;17.73;;;2.17;;
4806;SDS011;2417;52.482;13.432;2023-07-20T10:56:29;18.20;;;2.33;;
4806;SDS011;2417;52.482;13.432;2023-07-20T10:58:57;17.20;;;1.97;;
4806;SDS011;2417;52.482;13.432;2023-07-20T11:01:28;17.47;;;2.50;;
4806;SDS011;2417;52.482;13.432;2023-07-20T11:03:57;17.67;;;2.00;;
4806;SDS011;2417;52.482;13.432;2023-07-20T11:06:30;16.90;;;1.77;;
4806;SDS011;2417;52.482;13.432;2023-07-20T11:09:05;16.70;;;1.90;;
4806;SDS011;2417;52.482;13.432;2023-07-20T11:11:35;20.43;;;2.00;;
4806;SDS011;2417;52.482;13.432;2023-07-20T11:14:04;16.87;;;1.50;;
4806;SDS011;2417;52.482;13.432;2023-07-20T11:16:34;16.23;;;1.60;;
4806;SDS011;2417;52.482;13.432;2023-07-20T11:19:02;17.30;;;1.60;;
4806;SDS011;2417;52.482;13.432;2023-07-20T11:21:35;18.50;;;2.03;;
4806;SDS011;2417;52.482;13.432;2023-07-20T11:24:22;18.10;;;1.73;;
4806;SDS011;2417;52.482;13.432;2023-07-20T11:26:51;15.17;;;1.07;;
4806;SDS011;2417;52.482;13.432;2023-07-20T11:29:20;15.50;;;1.30;;
4806;SDS011;2417;52.482;13.432;2023-07-20T11:31:59;16.40;;;1.50;;
4806;SDS011;2417;52.482;13.432;2023-07-20T11:34:27;16.70;;;1.20;;
4806;SDS011;2417;52.482;13.432;2023-07-20T11:36:55;15.17;;;1.23;;
4806;SDS011;2417;52.482;13.432;2023-07-20T11:39:28;18.07;;;1.40;;
4806;SDS011;2417;52.482;13.432;2023-07-20T11:41:56;17.07;;;2.13;;
4806;SDS011;2417;52.482;13.432;2023-07-20T11:44:24;15.33;;;1.00;;
4806;SDS011;2417;52.482;13.432;2023-07-20T11:47:01;18.30;;;1.50;;
4806;SDS011;2417;52.482;13.432;2023-07-20T11:49:30;16.80;;;1.70;;
4806;SDS011;2417;52.482;13.432;2023-07-20T11:52:02;20.40;;;2.63;;
4806;SDS011;2417;52.482;13.432;2023-07-20T11:54:32;16.00;;;1.47;;
4806;SDS011;2417;52.482;13.432;2023-07-20T11:57:00;17.20;;;1.00;;
4806;SDS011;2417;52.482;13.432;2023-07-20T11:59:28;16.40;;;1.07;;
4806;SDS011;2417;52.482;13.432;2023-07-20T12:01:58;16.83;;;1.67;;
4806;SDS011;2417;52.482;13.432;2023-07-20T12:04:26;15.27;;;1.03;;
4806;SDS011;2417;52.482;13.432;2023-07-20T12:06:54;16.40;;;1.70;;
4806;SDS011;2417;52.482;13.432;2023-07-20T12:09:22;15.13;;;1.10;;
4806;SDS011;2417;52.482;13.432;2023-07-20T12:11:59;17.10;;;1.40;;
4806;SDS011;2417;52.482;13.432;2023-07-20T12:14:27;16.20;;;1.10;;
4806;SDS011;2417;52.482;13.432;2023-07-20T12:16:55;15.60;;;1.17;;
4806;SDS011;2417;52.482;13.432;2023-07-20T12:19:24;16.73;;;1.20;;
4806;SDS011;2417;52.482;13.432;2023-07-20T12:21:56;15.33;;;1.10;;
4806;SDS011;2417;52.482;13.432;2023-07-20T12:24:25;16.03;;;1.20;;
4806;SDS011;2417;52.482;13.432;2023-07-20T12:26:55;15.63;;;1.00;;
4806;SDS011;2417;52.482;13.432;2023-07-20T12:29:25;16.70;;;1.70;;
4806;SDS011;2417;52.482;13.432;2023-07-20T12:31:53;21.03;;;1.20;;
4806;SDS011;2417;52.482;13.432;2023-07-20T12:34:21;15.73;;;1.20;;
4806;SDS011;2417;52.482;13.432;2023-07-20T12:36:49;15.90;;;1.30;;
4806;SDS011;2417;52.482;13.432;2023-07-20T12:39:17;16.23;;;1.40;;
4806;SDS011;2417;52.482;13.432;2023-07-20T12:41:45;17.37;;;1.50;;
4806;SDS011;2417;52.482;13.432;2023-07-20T12:44:13;16.93;;;1.63;;
4806;SDS011;2417;52.482;13.432;2023-07-20T12:46:42;16.57;;;1.30;;
4806;SDS011;2417;52.482;13.432;2023-07-20T12:49:10;16.30;;;0.73;;
4806;SDS011;2417;52.482;13.432;2023-07-20T12:51:38;16.07;;;1.07;;
4806;SDS011;2417;52.482;13.432;2023-07-20T12:54:06;15.60;;;1.30;;
4806;SDS011;2417;52.482;13.432;2023-07-20T12:56:34;18.80;;;1.00;;
4806;SDS011;2417;52.482;13.432;2023-07-20T12:59:05;15.20;;;0.90;;
4806;SDS011;2417;52.482;13.432;2023-07-20T13:01:33;16.13;;;1.50;;
4806;SDS011;2417;52.482;13.432;2023-07-20T13:04:03;16.10;;;1.30;;
4806;SDS011;2417;52.482;13.432;2023-07-20T13:06:34;16.83;;;0.80;;
4806;SDS011;2417;52.482;13.432;2023-07-20T13:09:03;14.57;;;0.83;;
4806;SDS011;2417;52.482;13.432;2023-07-20T13:11:31;15.67;;;1.03;;
4806;SDS011;2417;52.482;13.432;2023-07-20T13:13:59;16.00;;;0.80;;
4806;SDS011;2417;52.482;13.432;2023-07-20T13:16:27;16.17;;;1.07;;
4806;SDS011;2417;52.482;13.432;2023-07-20T13:18:55;21.13;;;1.40;;
4806;SDS011;2417;52.482;13.432;2023-07-20T13:21:25;14.47;;;0.90;;
4806;SDS011;2417;52.482;13.432;2023-07-20T13:23:53;15.80;;;1.20;;
4806;SDS011;2417;52.482;13.432;2023-07-20T13:26:21;17.30;;;1.13;;
4806;SDS011;2417;52.482;13.432;2023-07-20T13:28:49;14.50;;;1.10;;
4806;SDS011;2417;52.482;13.432;2023-07-20T13:31:17;22.40;;;1.60;;
4806;SDS011;2417;52.482;13.432;2023-07-20T13:33:47;22.40;;;2.70;;
4806;SDS011;2417;52.482;13.432;2023-07-20T13:36:17;23.40;;;2.07;;
4806;SDS011;2417;52.482;13.432;2023-07-20T13:38:50;21.43;;;2.00;;
4806;SDS011;2417;52.482;13.432;2023-07-20T13:41:18;22.33;;;2.80;;
4806;SDS011;2417;52.482;13.432;2023-07-20T13:43:47;21.10;;;2.40;;
4806;SDS011;2417;52.482;13.432;2023-07-20T13:46:15;22.60;;;2.53;;
4806;SDS011;2417;52.482;13.432;2023-07-20T13:49:03;20.43;;;2.10;;
4806;SDS011;2417;52.482;13.432;2023-07-20T13:51:39;20.10;;;1.80;;
4806;SDS011;2417;52.482;13.432;2023-07-20T13:54:09;23.10;;;1.83;;
4806;SDS011;2417;52.482;13.432;2023-07-20T13:56:41;21.50;;;1.80;;
4806;SDS011;2417;52.482;13.432;2023-07-20T13:59:09;19.00;;;1.20;;
4806;SDS011;2417;52.482;13.432;2023-07-20T14:01:40;20.30;;;1.50;;
4806;SDS011;2417;52.482;13.432;2023-07-20T14:04:08;19.50;;;1.47;;
4806;SDS011;2417;52.482;13.432;2023-07-20T14:06:37;21.37;;;1.10;;
4806;SDS011;2417;52.482;13.432;2023-07-20T14:09:05;18.80;;;1.00;;
4806;SDS011;2417;52.482;13.432;2023-07-20T14:11:34;19.13;;;1.10;;
4806;SDS011;2417;52.482;13.432;2023-07-20T14:14:05;19.93;;;0.80;;
4806;SDS011;2417;52.482;13.432;2023-07-20T14:16:33;19.20;;;1.00;;
4806;SDS011;2417;52.482;13.432;2023-07-20T14:19:01;19.50;;;0.90;;
4806;SDS011;2417;52.482;13.432;2023-07-20T14:21:31;20.63;;;1.27;;
4806;SDS011;2417;52.482;13.432;2023-07-20T14:24:00;18.10;;;0.83;;
4806;SDS011;2417;52.482;13.432;2023-07-20T14:26:28;19.03;;;1.00;;
4806;SDS011;2417;52.482;13.432;2023-07-20T14:29:01;18.43;;;0.90;;
4806;SDS011;2417;52.482;13.432;2023-07-20T14:31:29;18.30;;;0.80;;
4806;SDS011;2417;52.482;13.432;2023-07-20T14:33:58;18.60;;;0.60;;
4806;SDS011;2417;52.482;13.432;2023-07-20T14:36:27;20.50;;;0.90;;
4806;SDS011;2417;52.482;13.432;2023-07-20T14:38:57;23.50;;;1.40;;
4806;SDS011;2417;52.482;13.432;2023-07-20T14:41:24;24.87;;;5.10;;
4806;SDS011;2417;52.482;13.432;2023-07-20T14:43:53;33.13;;;7.90;;
4806;SDS011;2417;52.482;13.432;2023-07-20T14:46:22;22.80;;;3.07;;
4806;SDS011;2417;52.482;13.432;2023-07-20T14:48:50;45.90;;;18.07;;
4806;SDS011;2417;52.482;13.432;2023-07-20T14:51:18;39.33;;;13.20;;
4806;SDS011;2417;52.482;13.432;2023-07-20T14:53:46;28.33;;;4.73;;
4806;SDS011;2417;52.482;13.432;2023-07-20T14:56:14;44.57;;;14.73;;
4806;SDS011;2417;52.482;13.432;2023-07-20T14:58:42;30.03;;;7.13;;
4806;SDS011;2417;52.482;13.432;2023-07-20T15:01:10;28.40;;;3.40;;